sensor_id;sensor_type;location;lat;lon;timestamp;pressure;altitude;pressure_sealevel;temperature
69186;BMP280;56298;49.246;9.410;2024-01-27T00:01:42;101182.75;;;1.29
69186;BMP280;56298;49.246;9.410;2024-01-27T00:04:08;101191.59;;;1.25
69186;BMP280;56298;49.246;9.410;2024-01-27T00:06:33;101189.34;;;1.22
69186;BMP280;56298;49.246;9.410;2024-01-27T00:08:58;101193.72;;;1.23
69186;BMP280;56298;49.246;9.410;2024-01-27T00:11:23;101194.63;;;1.28
69186;BMP280;56298;49.246;9.410;2024-01-27T00:13:49;101191.22;;;1.33
69186;BMP280;56298;49.246;9.410;2024-01-27T00:16:15;101190.38;;;1.33
69186;BMP280;56298;49.246;9.410;2024-01-27T00:18:40;101203.09;;;1.32
69186;BMP280;56298;49.246;9.410;2024-01-27T00:21:06;101206.53;;;1.15
69186;BMP280;56298;49.246;9.410;2024-01-27T00:23:31;101203.28;;;1.01
69186;BMP280;56298;49.246;9.410;2024-01-27T00:25:57;101206.44;;;0.98
69186;BMP280;56298;49.246;9.410;2024-01-27T00:28:23;101207.25;;;0.99
69186;BMP280;56298;49.246;9.410;2024-01-27T00:30:48;101208.19;;;1.04
69186;BMP280;56298;49.246;9.410;2024-01-27T00:33:13;101212.19;;;1.02
69186;BMP280;56298;49.246;9.410;2024-01-27T00:35:39;101206.91;;;0.95
69186;BMP280;56298;49.246;9.410;2024-01-27T00:38:04;101204.69;;;0.92
69186;BMP280;56298;49.246;9.410;2024-01-27T00:40:29;101207.50;;;0.97
69186;BMP280;56298;49.246;9.410;2024-01-27T00:42:54;101210.44;;;0.96
69186;BMP280;56298;49.246;9.410;2024-01-27T00:45:20;101213.13;;;0.96
69186;BMP280;56298;49.246;9.410;2024-01-27T00:47:49;101211.22;;;1.08
69186;BMP280;56298;49.246;9.410;2024-01-27T00:50:14;101211.72;;;1.05
69186;BMP280;56298;49.246;9.410;2024-01-27T00:52:40;101218.53;;;0.96
69186;BMP280;56298;49.246;9.410;2024-01-27T00:55:05;101226.53;;;0.78
69186;BMP280;56298;49.246;9.410;2024-01-27T00:57:30;101227.00;;;0.87
69186;BMP280;56298;49.246;9.410;2024-01-27T00:59:56;101223.94;;;0.72
69186;BMP280;56298;49.246;9.410;2024-01-27T01:02:21;101219.84;;;0.69
69186;BMP280;56298;49.246;9.410;2024-01-27T01:07:15;101215.47;;;0.56
69186;BMP280;56298;49.246;9.410;2024-01-27T01:09:41;101221.47;;;0.58
69186;BMP280;56298;49.246;9.410;2024-01-27T01:12:06;101227.31;;;0.55
69186;BMP280;56298;49.246;9.410;2024-01-27T01:14:31;101216.53;;;0.55
69186;BMP280;56298;49.246;9.410;2024-01-27T01:16:56;101221.94;;;0.55
69186;BMP280;56298;49.246;9.410;2024-01-27T01:19:21;101222.16;;;0.53
69186;BMP280;56298;49.246;9.410;2024-01-27T01:21:47;101222.28;;;0.59
69186;BMP280;56298;49.246;9.410;2024-01-27T01:24:12;101224.97;;;0.59
69186;BMP280;56298;49.246;9.410;2024-01-27T01:26:37;101232.28;;;0.58
69186;BMP280;56298;49.246;9.410;2024-01-27T01:29:02;101238.03;;;0.62
69186;BMP280;56298;49.246;9.410;2024-01-27T01:31:28;101249.41;;;0.64
69186;BMP280;56298;49.246;9.410;2024-01-27T01:33:53;101246.72;;;0.64
69186;BMP280;56298;49.246;9.410;2024-01-27T01:36:18;101253.16;;;0.63
69186;BMP280;56298;49.246;9.410;2024-01-27T01:38:43;101253.88;;;0.58
69186;BMP280;56298;49.246;9.410;2024-01-27T01:41:09;101263.91;;;0.39
69186;BMP280;56298;49.246;9.410;2024-01-27T01:43:34;101264.06;;;0.02
69186;BMP280;56298;49.246;9.410;2024-01-27T01:46:00;101259.47;;;-0.10
69186;BMP280;56298;49.246;9.410;2024-01-27T01:48:25;101257.53;;;-0.21
69186;BMP280;56298;49.246;9.410;2024-01-27T01:50:51;101259.13;;;-0.32
69186;BMP280;56298;49.246;9.410;2024-01-27T01:53:16;101260.69;;;-0.24
69186;BMP280;56298;49.246;9.410;2024-01-27T01:55:42;101260.47;;;-0.23
69186;BMP280;56298;49.246;9.410;2024-01-27T01:58:08;101268.22;;;-0.15
69186;BMP280;56298;49.246;9.410;2024-01-27T02:00:33;101272.50;;;-0.07
69186;BMP280;56298;49.246;9.410;2024-01-27T02:02:58;101278.88;;;0.11
69186;BMP280;56298;49.246;9.410;2024-01-27T02:05:24;101274.78;;;0.08
69186;BMP280;56298;49.246;9.410;2024-01-27T02:07:50;101278.78;;;0.18
69186;BMP280;56298;49.246;9.410;2024-01-27T02:10:17;101280.44;;;0.19
69186;BMP280;56298;49.246;9.410;2024-01-27T02:12:43;101286.41;;;0.09
69186;BMP280;56298;49.246;9.410;2024-01-27T02:15:12;101282.19;;;0.13
69186;BMP280;56298;49.246;9.410;2024-01-27T02:17:39;101285.72;;;-0.05
69186;BMP280;56298;49.246;9.410;2024-01-27T02:20:06;101285.91;;;0.00
69186;BMP280;56298;49.246;9.410;2024-01-27T02:22:32;101289.31;;;0.07
69186;BMP280;56298;49.246;9.410;2024-01-27T02:24:58;101294.84;;;0.12
69186;BMP280;56298;49.246;9.410;2024-01-27T02:27:23;101282.78;;;0.15
69186;BMP280;56298;49.246;9.410;2024-01-27T02:29:48;101295.44;;;0.15
69186;BMP280;56298;49.246;9.410;2024-01-27T02:32:14;101303.34;;;-0.03
69186;BMP280;56298;49.246;9.410;2024-01-27T02:34:39;101299.63;;;-0.20
69186;BMP280;56298;49.246;9.410;2024-01-27T02:37:04;101302.09;;;-0.37
69186;BMP280;56298;49.246;9.410;2024-01-27T02:39:30;101303.25;;;-0.33
69186;BMP280;56298;49.246;9.410;2024-01-27T02:41:56;101311.81;;;-0.36
69186;BMP280;56298;49.246;9.410;2024-01-27T02:44:21;101305.16;;;-0.34
69186;BMP280;56298;49.246;9.410;2024-01-27T02:46:46;101309.53;;;-0.33
69186;BMP280;56298;49.246;9.410;2024-01-27T02:49:12;101310.88;;;-0.23
69186;BMP280;56298;49.246;9.410;2024-01-27T02:51:37;101310.94;;;-0.11
69186;BMP280;56298;49.246;9.410;2024-01-27T02:54:02;101314.06;;;-0.15
69186;BMP280;56298;49.246;9.410;2024-01-27T02:56:27;101318.19;;;-0.12
69186;BMP280;56298;49.246;9.410;2024-01-27T02:58:53;101313.53;;;-0.05
69186;BMP280;56298;49.246;9.410;2024-01-27T03:01:18;101310.50;;;-0.27
69186;BMP280;56298;49.246;9.410;2024-01-27T03:03:43;101309.34;;;-0.38
69186;BMP280;56298;49.246;9.410;2024-01-27T03:06:08;101316.09;;;-0.47
69186;BMP280;56298;49.246;9.410;2024-01-27T03:08:34;101319.06;;;-0.56
69186;BMP280;56298;49.246;9.410;2024-01-27T03:10:59;101324.25;;;-0.54
69186;BMP280;56298;49.246;9.410;2024-01-27T03:13:24;101320.78;;;-0.43
69186;BMP280;56298;49.246;9.410;2024-01-27T03:15:49;101320.41;;;-0.46
69186;BMP280;56298;49.246;9.410;2024-01-27T03:18:15;101323.19;;;-0.53
69186;BMP280;56298;49.246;9.410;2024-01-27T03:20:40;101327.31;;;-0.50
69186;BMP280;56298;49.246;9.410;2024-01-27T03:23:05;101332.41;;;-0.42
69186;BMP280;56298;49.246;9.410;2024-01-27T03:25:31;101322.78;;;-0.31
69186;BMP280;56298;49.246;9.410;2024-01-27T03:27:56;101324.56;;;-0.25
69186;BMP280;56298;49.246;9.410;2024-01-27T03:30:21;101325.03;;;-0.28
69186;BMP280;56298;49.246;9.410;2024-01-27T03:32:46;101332.53;;;-0.37
69186;BMP280;56298;49.246;9.410;2024-01-27T03:35:12;101333.22;;;-0.60
69186;BMP280;56298;49.246;9.410;2024-01-27T03:37:37;101337.34;;;-0.58
69186;BMP280;56298;49.246;9.410;2024-01-27T03:40:02;101339.06;;;-0.63
69186;BMP280;56298;49.246;9.410;2024-01-27T03:42:27;101344.97;;;-0.55
69186;BMP280;56298;49.246;9.410;2024-01-27T03:44:53;101339.34;;;-0.53
69186;BMP280;56298;49.246;9.410;2024-01-27T03:47:18;101336.06;;;-0.55
69186;BMP280;56298;49.246;9.410;2024-01-27T03:49:43;101337.44;;;-0.46
69186;BMP280;56298;49.246;9.410;2024-01-27T03:52:09;101334.94;;;-0.47
69186;BMP280;56298;49.246;9.410;2024-01-27T03:54:37;101338.69;;;-0.48
69186;BMP280;56298;49.246;9.410;2024-01-27T03:57:02;101336.81;;;-0.48
69186;BMP280;56298;49.246;9.410;2024-01-27T03:59:28;101350.69;;;-0.44
69186;BMP280;56298;49.246;9.410;2024-01-27T04:01:53;101350.28;;;-0.48
69186;BMP280;56298;49.246;9.410;2024-01-27T04:04:18;101352.75;;;-0.46
69186;BMP280;56298;49.246;9.410;2024-01-27T04:06:44;101355.91;;;-0.49
69186;BMP280;56298;49.246;9.410;2024-01-27T04:09:09;101348.94;;;-0.57
69186;BMP280;56298;49.246;9.410;2024-01-27T04:11:35;101352.66;;;-0.58
69186;BMP280;56298;49.246;9.410;2024-01-27T04:14:06;101355.75;;;-0.55
69186;BMP280;56298;49.246;9.410;2024-01-27T04:16:31;101360.63;;;-0.45
69186;BMP280;56298;49.246;9.410;2024-01-27T04:18:56;101353.22;;;-0.49
69186;BMP280;56298;49.246;9.410;2024-01-27T04:21:22;101350.34;;;-0.55
69186;BMP280;56298;49.246;9.410;2024-01-27T04:23:48;101351.69;;;-0.64
69186;BMP280;56298;49.246;9.410;2024-01-27T04:26:13;101359.78;;;-0.64
69186;BMP280;56298;49.246;9.410;2024-01-27T04:28:39;101362.94;;;-0.67
69186;BMP280;56298;49.246;9.410;2024-01-27T04:31:04;101366.59;;;-0.61
69186;BMP280;56298;49.246;9.410;2024-01-27T04:33:29;101372.59;;;-0.59
69186;BMP280;56298;49.246;9.410;2024-01-27T04:35:54;101366.47;;;-0.73
69186;BMP280;56298;49.246;9.410;2024-01-27T04:38:20;101372.56;;;-0.78
69186;BMP280;56298;49.246;9.410;2024-01-27T04:40:45;101363.19;;;-0.75
69186;BMP280;56298;49.246;9.410;2024-01-27T04:43:17;101365.38;;;-0.84
69186;BMP280;56298;49.246;9.410;2024-01-27T04:45:43;101371.78;;;-0.85
69186;BMP280;56298;49.246;9.410;2024-01-27T04:48:08;101375.31;;;-0.85
69186;BMP280;56298;49.246;9.410;2024-01-27T04:50:34;101375.13;;;-0.90
69186;BMP280;56298;49.246;9.410;2024-01-27T04:52:59;101381.53;;;-0.84
69186;BMP280;56298;49.246;9.410;2024-01-27T04:55:24;101387.34;;;-0.87
69186;BMP280;56298;49.246;9.410;2024-01-27T04:57:49;101390.41;;;-0.84
69186;BMP280;56298;49.246;9.410;2024-01-27T05:00:15;101387.88;;;-0.79
69186;BMP280;56298;49.246;9.410;2024-01-27T05:02:41;101384.81;;;-0.82
69186;BMP280;56298;49.246;9.410;2024-01-27T05:05:07;101386.28;;;-0.86
69186;BMP280;56298;49.246;9.410;2024-01-27T05:07:32;101385.34;;;-0.73
69186;BMP280;56298;49.246;9.410;2024-01-27T05:09:58;101386.44;;;-0.81
69186;BMP280;56298;49.246;9.410;2024-01-27T05:12:23;101393.66;;;-0.75
69186;BMP280;56298;49.246;9.410;2024-01-27T05:14:48;101390.13;;;-0.75
69186;BMP280;56298;49.246;9.410;2024-01-27T05:17:13;101389.09;;;-0.74
69186;BMP280;56298;49.246;9.410;2024-01-27T05:19:39;101396.06;;;-0.67
69186;BMP280;56298;49.246;9.410;2024-01-27T05:22:04;101391.72;;;-0.68
69186;BMP280;56298;49.246;9.410;2024-01-27T05:24:29;101395.09;;;-0.72
69186;BMP280;56298;49.246;9.410;2024-01-27T05:26:55;101396.97;;;-0.73
69186;BMP280;56298;49.246;9.410;2024-01-27T05:29:21;101393.31;;;-0.85
69186;BMP280;56298;49.246;9.410;2024-01-27T05:31:46;101405.19;;;-0.93
69186;BMP280;56298;49.246;9.410;2024-01-27T05:34:11;101401.53;;;-0.99
69186;BMP280;56298;49.246;9.410;2024-01-27T05:36:36;101407.38;;;-1.09
69186;BMP280;56298;49.246;9.410;2024-01-27T05:39:02;101417.28;;;-1.02
69186;BMP280;56298;49.246;9.410;2024-01-27T05:41:30;101408.81;;;-1.06
69186;BMP280;56298;49.246;9.410;2024-01-27T05:43:55;101412.31;;;-0.99
69186;BMP280;56298;49.246;9.410;2024-01-27T05:46:23;101409.81;;;-1.00
69186;BMP280;56298;49.246;9.410;2024-01-27T05:48:48;101404.47;;;-1.07
69186;BMP280;56298;49.246;9.410;2024-01-27T05:51:15;101409.41;;;-1.04
69186;BMP280;56298;49.246;9.410;2024-01-27T05:53:41;101408.66;;;-1.11
69186;BMP280;56298;49.246;9.410;2024-01-27T05:56:06;101404.06;;;-1.11
69186;BMP280;56298;49.246;9.410;2024-01-27T05:58:31;101406.38;;;-1.14
69186;BMP280;56298;49.246;9.410;2024-01-27T06:00:56;101402.09;;;-1.22
69186;BMP280;56298;49.246;9.410;2024-01-27T06:03:22;101403.56;;;-1.26
69186;BMP280;56298;49.246;9.410;2024-01-27T06:05:47;101403.94;;;-1.23
69186;BMP280;56298;49.246;9.410;2024-01-27T06:08:12;101411.75;;;-1.14
69186;BMP280;56298;49.246;9.410;2024-01-27T06:10:37;101415.16;;;-1.26
69186;BMP280;56298;49.246;9.410;2024-01-27T06:13:03;101413.09;;;-1.30
69186;BMP280;56298;49.246;9.410;2024-01-27T06:15:29;101414.56;;;-1.35
69186;BMP280;56298;49.246;9.410;2024-01-27T06:17:54;101417.22;;;-1.28
69186;BMP280;56298;49.246;9.410;2024-01-27T06:20:19;101414.06;;;-1.18
69186;BMP280;56298;49.246;9.410;2024-01-27T06:22:45;101422.38;;;-1.20
69186;BMP280;56298;49.246;9.410;2024-01-27T06:25:10;101417.22;;;-1.28
69186;BMP280;56298;49.246;9.410;2024-01-27T06:27:36;101412.50;;;-1.33
69186;BMP280;56298;49.246;9.410;2024-01-27T06:30:04;101414.44;;;-1.53
69186;BMP280;56298;49.246;9.410;2024-01-27T06:32:29;101408.94;;;-1.72
69186;BMP280;56298;49.246;9.410;2024-01-27T06:34:54;101419.09;;;-1.74
69186;BMP280;56298;49.246;9.410;2024-01-27T06:37:19;101416.81;;;-1.77
69186;BMP280;56298;49.246;9.410;2024-01-27T06:39:45;101414.72;;;-1.68
69186;BMP280;56298;49.246;9.410;2024-01-27T06:42:10;101421.34;;;-1.64
69186;BMP280;56298;49.246;9.410;2024-01-27T06:44:35;101420.88;;;-1.54
69186;BMP280;56298;49.246;9.410;2024-01-27T06:47:00;101422.88;;;-1.36
69186;BMP280;56298;49.246;9.410;2024-01-27T06:49:25;101423.28;;;-1.39
69186;BMP280;56298;49.246;9.410;2024-01-27T06:51:51;101428.50;;;-1.51
69186;BMP280;56298;49.246;9.410;2024-01-27T06:54:16;101430.16;;;-1.50
69186;BMP280;56298;49.246;9.410;2024-01-27T06:56:41;101435.38;;;-1.55
69186;BMP280;56298;49.246;9.410;2024-01-27T06:59:06;101437.66;;;-1.59
69186;BMP280;56298;49.246;9.410;2024-01-27T07:01:32;101437.91;;;-1.67
69186;BMP280;56298;49.246;9.410;2024-01-27T07:03:57;101445.56;;;-1.64
69186;BMP280;56298;49.246;9.410;2024-01-27T07:06:22;101442.00;;;-1.58
69186;BMP280;56298;49.246;9.410;2024-01-27T07:08:47;101443.19;;;-1.47
69186;BMP280;56298;49.246;9.410;2024-01-27T07:11:13;101437.81;;;-1.47
69186;BMP280;56298;49.246;9.410;2024-01-27T07:13:38;101451.69;;;-1.50
69186;BMP280;56298;49.246;9.410;2024-01-27T07:16:04;101461.41;;;-1.49
69186;BMP280;56298;49.246;9.410;2024-01-27T07:18:30;101455.97;;;-1.29
69186;BMP280;56298;49.246;9.410;2024-01-27T07:20:55;101456.00;;;-1.36
69186;BMP280;56298;49.246;9.410;2024-01-27T07:23:20;101457.41;;;-1.26
69186;BMP280;56298;49.246;9.410;2024-01-27T07:25:45;101471.06;;;-1.28
69186;BMP280;56298;49.246;9.410;2024-01-27T07:28:23;101465.91;;;-1.29
69186;BMP280;56298;49.246;9.410;2024-01-27T07:30:48;101468.09;;;-1.13
69186;BMP280;56298;49.246;9.410;2024-01-27T07:33:20;101464.53;;;-1.07
69186;BMP280;56298;49.246;9.410;2024-01-27T07:35:45;101461.38;;;-0.97
69186;BMP280;56298;49.246;9.410;2024-01-27T07:38:10;101467.72;;;-0.84
69186;BMP280;56298;49.246;9.410;2024-01-27T07:40:36;101479.84;;;-0.68
69186;BMP280;56298;49.246;9.410;2024-01-27T07:43:01;101470.34;;;-0.52
69186;BMP280;56298;49.246;9.410;2024-01-27T07:45:26;101465.44;;;-0.30
69186;BMP280;56298;49.246;9.410;2024-01-27T07:47:51;101476.09;;;-0.16
69186;BMP280;56298;49.246;9.410;2024-01-27T07:50:17;101469.28;;;-0.19
69186;BMP280;56298;49.246;9.410;2024-01-27T07:52:42;101473.06;;;-0.27
69186;BMP280;56298;49.246;9.410;2024-01-27T07:55:08;101474.22;;;-0.16
69186;BMP280;56298;49.246;9.410;2024-01-27T07:57:33;101468.25;;;0.01
69186;BMP280;56298;49.246;9.410;2024-01-27T07:59:58;101455.50;;;0.27
69186;BMP280;56298;49.246;9.410;2024-01-27T08:02:24;101457.03;;;0.35
69186;BMP280;56298;49.246;9.410;2024-01-27T08:04:51;101451.31;;;0.62
69186;BMP280;56298;49.246;9.410;2024-01-27T08:07:16;101457.09;;;0.77
69186;BMP280;56298;49.246;9.410;2024-01-27T08:09:41;101451.72;;;0.77
69186;BMP280;56298;49.246;9.410;2024-01-27T08:12:07;101459.72;;;0.84
69186;BMP280;56298;49.246;9.410;2024-01-27T08:14:32;101467.16;;;0.89
69186;BMP280;56298;49.246;9.410;2024-01-27T08:17:01;101458.63;;;1.04
69186;BMP280;56298;49.246;9.410;2024-01-27T08:19:26;101464.38;;;1.08
69186;BMP280;56298;49.246;9.410;2024-01-27T08:21:51;101468.41;;;1.17
69186;BMP280;56298;49.246;9.410;2024-01-27T08:24:17;101475.00;;;1.21
69186;BMP280;56298;49.246;9.410;2024-01-27T08:26:42;101476.91;;;1.33
69186;BMP280;56298;49.246;9.410;2024-01-27T08:29:10;101475.47;;;1.54
69186;BMP280;56298;49.246;9.410;2024-01-27T08:31:35;101481.97;;;1.77
69186;BMP280;56298;49.246;9.410;2024-01-27T08:34:03;101482.19;;;1.87
69186;BMP280;56298;49.246;9.410;2024-01-27T08:36:28;101482.28;;;1.92
69186;BMP280;56298;49.246;9.410;2024-01-27T08:38:53;101477.59;;;2.00
69186;BMP280;56298;49.246;9.410;2024-01-27T08:41:19;101480.50;;;1.98
69186;BMP280;56298;49.246;9.410;2024-01-27T08:43:44;101474.53;;;2.08
69186;BMP280;56298;49.246;9.410;2024-01-27T08:46:09;101469.94;;;1.96
69186;BMP280;56298;49.246;9.410;2024-01-27T08:48:37;101470.47;;;2.34
69186;BMP280;56298;49.246;9.410;2024-01-27T08:51:02;101469.66;;;2.51
69186;BMP280;56298;49.246;9.410;2024-01-27T08:53:28;101473.75;;;2.65
69186;BMP280;56298;49.246;9.410;2024-01-27T08:55:53;101470.72;;;2.79
69186;BMP280;56298;49.246;9.410;2024-01-27T08:58:18;101461.91;;;3.01
69186;BMP280;56298;49.246;9.410;2024-01-27T09:00:43;101470.31;;;3.04
69186;BMP280;56298;49.246;9.410;2024-01-27T09:03:09;101461.31;;;2.99
69186;BMP280;56298;49.246;9.410;2024-01-27T09:05:34;101461.81;;;2.96
69186;BMP280;56298;49.246;9.410;2024-01-27T09:07:59;101459.50;;;2.87
69186;BMP280;56298;49.246;9.410;2024-01-27T09:10:24;101457.03;;;3.37
69186;BMP280;56298;49.246;9.410;2024-01-27T09:12:50;101462.50;;;3.59
69186;BMP280;56298;49.246;9.410;2024-01-27T09:15:16;101475.44;;;3.52
69186;BMP280;56298;49.246;9.410;2024-01-27T09:17:41;101478.84;;;3.65
69186;BMP280;56298;49.246;9.410;2024-01-27T09:20:08;101475.38;;;3.69
69186;BMP280;56298;49.246;9.410;2024-01-27T09:22:33;101472.78;;;3.97
69186;BMP280;56298;49.246;9.410;2024-01-27T09:24:59;101475.34;;;4.09
69186;BMP280;56298;49.246;9.410;2024-01-27T09:27:24;101473.00;;;4.18
69186;BMP280;56298;49.246;9.410;2024-01-27T09:29:49;101466.00;;;4.22
69186;BMP280;56298;49.246;9.410;2024-01-27T09:32:15;101467.88;;;4.21
69186;BMP280;56298;49.246;9.410;2024-01-27T09:34:40;101472.25;;;4.45
69186;BMP280;56298;49.246;9.410;2024-01-27T09:37:05;101479.66;;;4.55
69186;BMP280;56298;49.246;9.410;2024-01-27T09:39:30;101479.53;;;4.66
69186;BMP280;56298;49.246;9.410;2024-01-27T09:41:56;101489.22;;;4.57
69186;BMP280;56298;49.246;9.410;2024-01-27T09:44:23;101492.13;;;4.50
69186;BMP280;56298;49.246;9.410;2024-01-27T09:46:50;101504.25;;;4.65
69186;BMP280;56298;49.246;9.410;2024-01-27T09:49:16;101495.31;;;4.42
69186;BMP280;56298;49.246;9.410;2024-01-27T09:51:41;101500.63;;;4.59
69186;BMP280;56298;49.246;9.410;2024-01-27T09:54:06;101507.50;;;4.95
69186;BMP280;56298;49.246;9.410;2024-01-27T09:56:32;101504.19;;;4.92
69186;BMP280;56298;49.246;9.410;2024-01-27T09:58:58;101491.31;;;5.10
69186;BMP280;56298;49.246;9.410;2024-01-27T10:01:24;101504.69;;;4.89
69186;BMP280;56298;49.246;9.410;2024-01-27T10:03:54;101506.13;;;5.30
69186;BMP280;56298;49.246;9.410;2024-01-27T10:06:19;101504.66;;;5.55
69186;BMP280;56298;49.246;9.410;2024-01-27T10:08:54;101503.00;;;5.97
69186;BMP280;56298;49.246;9.410;2024-01-27T10:11:21;101499.75;;;6.05
69186;BMP280;56298;49.246;9.410;2024-01-27T10:13:56;101504.44;;;6.31
69186;BMP280;56298;49.246;9.410;2024-01-27T10:16:22;101501.25;;;6.60
69186;BMP280;56298;49.246;9.410;2024-01-27T10:18:59;101496.31;;;6.77
69186;BMP280;56298;49.246;9.410;2024-01-27T10:21:24;101498.81;;;6.84
69186;BMP280;56298;49.246;9.410;2024-01-27T10:23:51;101498.25;;;6.82
69186;BMP280;56298;49.246;9.410;2024-01-27T10:26:16;101501.00;;;6.66
69186;BMP280;56298;49.246;9.410;2024-01-27T10:28:42;101499.09;;;6.82
69186;BMP280;56298;49.246;9.410;2024-01-27T10:31:11;101503.97;;;6.75
69186;BMP280;56298;49.246;9.410;2024-01-27T10:33:36;101502.63;;;6.83
69186;BMP280;56298;49.246;9.410;2024-01-27T10:36:02;101504.53;;;6.72
69186;BMP280;56298;49.246;9.410;2024-01-27T10:38:38;101502.63;;;6.83
69186;BMP280;56298;49.246;9.410;2024-01-27T10:41:07;101497.97;;;7.09
69186;BMP280;56298;49.246;9.410;2024-01-27T10:43:35;101500.44;;;7.01
69186;BMP280;56298;49.246;9.410;2024-01-27T10:46:05;101500.16;;;7.02
69186;BMP280;56298;49.246;9.410;2024-01-27T10:48:30;101491.44;;;7.16
69186;BMP280;56298;49.246;9.410;2024-01-27T10:50:56;101493.84;;;7.22
69186;BMP280;56298;49.246;9.410;2024-01-27T10:53:23;101485.94;;;7.26
69186;BMP280;56298;49.246;9.410;2024-01-27T10:55:51;101480.47;;;7.31
69186;BMP280;56298;49.246;9.410;2024-01-27T10:58:19;101489.97;;;7.49
69186;BMP280;56298;49.246;9.410;2024-01-27T11:00:45;101478.50;;;7.52
69186;BMP280;56298;49.246;9.410;2024-01-27T11:03:12;101478.44;;;7.68
69186;BMP280;56298;49.246;9.410;2024-01-27T11:05:39;101478.19;;;7.70
69186;BMP280;56298;49.246;9.410;2024-01-27T11:08:05;101475.19;;;7.71
69186;BMP280;56298;49.246;9.410;2024-01-27T11:10:31;101466.94;;;7.76
69186;BMP280;56298;49.246;9.410;2024-01-27T11:13:05;101469.06;;;7.95
69186;BMP280;56298;49.246;9.410;2024-01-27T11:15:30;101461.91;;;7.99
69186;BMP280;56298;49.246;9.410;2024-01-27T11:17:59;101465.19;;;8.01
69186;BMP280;56298;49.246;9.410;2024-01-27T11:20:30;101461.13;;;7.93
69186;BMP280;56298;49.246;9.410;2024-01-27T11:23:08;101444.63;;;8.14
69186;BMP280;56298;49.246;9.410;2024-01-27T11:25:33;101436.06;;;8.26
69186;BMP280;56298;49.246;9.410;2024-01-27T11:27:59;101429.41;;;8.38
69186;BMP280;56298;49.246;9.410;2024-01-27T11:30:26;101426.16;;;8.35
69186;BMP280;56298;49.246;9.410;2024-01-27T11:32:54;101427.22;;;8.34
69186;BMP280;56298;49.246;9.410;2024-01-27T11:35:19;101420.69;;;8.35
69186;BMP280;56298;49.246;9.410;2024-01-27T11:37:45;101414.03;;;8.47
69186;BMP280;56298;49.246;9.410;2024-01-27T11:40:10;101414.03;;;8.47
69186;BMP280;56298;49.246;9.410;2024-01-27T11:42:36;101415.16;;;8.41
69186;BMP280;56298;49.246;9.410;2024-01-27T11:45:02;101405.66;;;8.33
69186;BMP280;56298;49.246;9.410;2024-01-27T11:47:28;101401.25;;;8.37
69186;BMP280;56298;49.246;9.410;2024-01-27T11:49:55;101402.63;;;8.34
69186;BMP280;56298;49.246;9.410;2024-01-27T11:52:22;101401.09;;;8.23
69186;BMP280;56298;49.246;9.410;2024-01-27T11:54:59;101393.88;;;8.38
69186;BMP280;56298;49.246;9.410;2024-01-27T11:57:25;101394.00;;;8.57
69186;BMP280;56298;49.246;9.410;2024-01-27T11:59:52;101378.22;;;8.73
69186;BMP280;56298;49.246;9.410;2024-01-27T12:02:18;101372.72;;;8.78
69186;BMP280;56298;49.246;9.410;2024-01-27T12:04:43;101374.56;;;8.83
69186;BMP280;56298;49.246;9.410;2024-01-27T12:07:09;101373.50;;;8.79
69186;BMP280;56298;49.246;9.410;2024-01-27T12:09:37;101376.88;;;8.95
69186;BMP280;56298;49.246;9.410;2024-01-27T12:12:04;101378.28;;;9.16
69186;BMP280;56298;49.246;9.410;2024-01-27T12:14:49;101380.34;;;9.30
69186;BMP280;56298;49.246;9.410;2024-01-27T12:17:14;101366.69;;;9.25
69186;BMP280;56298;49.246;9.410;2024-01-27T12:19:46;101365.13;;;9.18
69186;BMP280;56298;49.246;9.410;2024-01-27T12:22:30;101359.69;;;9.38
69186;BMP280;56298;49.246;9.410;2024-01-27T12:25:08;101364.78;;;9.44
69186;BMP280;56298;49.246;9.410;2024-01-27T12:27:34;101365.31;;;9.66
69186;BMP280;56298;49.246;9.410;2024-01-27T12:30:00;101360.69;;;9.61
69186;BMP280;56298;49.246;9.410;2024-01-27T12:32:26;101362.13;;;9.58
69186;BMP280;56298;49.246;9.410;2024-01-27T12:34:52;101370.50;;;9.48
69186;BMP280;56298;49.246;9.410;2024-01-27T12:37:17;101375.44;;;9.65
69186;BMP280;56298;49.246;9.410;2024-01-27T12:39:43;101378.63;;;9.72
69186;BMP280;56298;49.246;9.410;2024-01-27T12:42:09;101371.84;;;9.70
69186;BMP280;56298;49.246;9.410;2024-01-27T12:44:34;101375.56;;;9.79
69186;BMP280;56298;49.246;9.410;2024-01-27T12:47:00;101368.34;;;9.83
69186;BMP280;56298;49.246;9.410;2024-01-27T12:49:26;101360.91;;;9.70
69186;BMP280;56298;49.246;9.410;2024-01-27T12:51:51;101367.63;;;9.78
69186;BMP280;56298;49.246;9.410;2024-01-27T12:54:17;101372.81;;;9.79
69186;BMP280;56298;49.246;9.410;2024-01-27T12:56:42;101377.09;;;9.85
69186;BMP280;56298;49.246;9.410;2024-01-27T12:59:07;101372.44;;;9.67
69186;BMP280;56298;49.246;9.410;2024-01-27T13:01:33;101373.91;;;9.59
69186;BMP280;56298;49.246;9.410;2024-01-27T13:03:58;101369.41;;;9.68
69186;BMP280;56298;49.246;9.410;2024-01-27T13:06:24;101366.84;;;9.72
69186;BMP280;56298;49.246;9.410;2024-01-27T13:08:49;101368.50;;;9.54
69186;BMP280;56298;49.246;9.410;2024-01-27T13:11:15;101367.91;;;9.76
69186;BMP280;56298;49.246;9.410;2024-01-27T13:13:41;101366.56;;;9.73
69186;BMP280;56298;49.246;9.410;2024-01-27T13:16:06;101366.94;;;9.67
69186;BMP280;56298;49.246;9.410;2024-01-27T13:18:32;101365.16;;;9.76
69186;BMP280;56298;49.246;9.410;2024-01-27T13:20:57;101365.59;;;9.64
69186;BMP280;56298;49.246;9.410;2024-01-27T13:23:22;101363.63;;;9.70
69186;BMP280;56298;49.246;9.410;2024-01-27T13:25:48;101362.00;;;9.50
69186;BMP280;56298;49.246;9.410;2024-01-27T13:28:13;101369.28;;;9.54
69186;BMP280;56298;49.246;9.410;2024-01-27T13:30:39;101360.56;;;9.52
69186;BMP280;56298;49.246;9.410;2024-01-27T13:33:05;101355.03;;;9.57
69186;BMP280;56298;49.246;9.410;2024-01-27T13:35:30;101355.84;;;9.39
69186;BMP280;56298;49.246;9.410;2024-01-27T13:37:55;101354.41;;;9.22
69186;BMP280;56298;49.246;9.410;2024-01-27T13:40:20;101342.53;;;8.83
69186;BMP280;56298;49.246;9.410;2024-01-27T13:42:45;101336.09;;;8.74
69186;BMP280;56298;49.246;9.410;2024-01-27T13:45:11;101332.41;;;8.84
69186;BMP280;56298;49.246;9.410;2024-01-27T13:47:36;101319.66;;;8.74
69186;BMP280;56298;49.246;9.410;2024-01-27T13:50:02;101319.94;;;8.72
69186;BMP280;56298;49.246;9.410;2024-01-27T13:52:27;101328.22;;;8.67
69186;BMP280;56298;49.246;9.410;2024-01-27T13:54:54;101318.84;;;8.49
69186;BMP280;56298;49.246;9.410;2024-01-27T13:57:19;101319.38;;;8.51
69186;BMP280;56298;49.246;9.410;2024-01-27T13:59:45;101313.69;;;8.42